createdAt,value
2022-12-07T00:00:51.622Z,228.20
2022-12-07T00:01:51.655Z,216.40
2022-12-07T00:02:51.708Z,224.70
2022-12-07T00:03:51.656Z,205.30
2022-12-07T00:04:51.606Z,161.30
2022-12-07T00:05:51.565Z,144.60
2022-12-07T00:06:51.561Z,215.90
2022-12-07T00:07:51.593Z,206.50
2022-12-07T00:08:51.516Z,111.20
2022-12-07T00:09:51.566Z,163.50
2022-12-07T00:10:51.507Z,223.40
2022-12-07T00:11:51.537Z,113.60
2022-12-07T00:12:51.474Z,141.20
2022-12-07T00:13:51.458Z,207.40
2022-12-07T00:14:51.479Z,213.00
2022-12-07T00:15:51.427Z,120.50
2022-12-07T00:16:51.503Z,182.80
2022-12-07T00:17:51.455Z,197.90
2022-12-07T00:18:51.414Z,111.90
2022-12-07T00:19:51.452Z,208.60
2022-12-07T00:20:51.394Z,197.40
2022-12-07T00:21:51.393Z,114.60
2022-12-07T00:22:51.361Z,192.20
2022-12-07T00:23:51.361Z,185.90
2022-12-07T00:24:51.376Z,151.80
2022-12-07T00:25:51.351Z,118.60
2022-12-07T00:26:51.317Z,190.10
2022-12-07T00:27:51.308Z,195.10
2022-12-07T00:28:51.300Z,179.00
2022-12-07T00:29:51.326Z,177.40
2022-12-07T00:30:51.288Z,146.80
2022-12-07T00:31:51.316Z,131.30
2022-12-07T00:32:51.223Z,128.20
2022-12-07T00:33:51.241Z,207.00
2022-12-07T00:34:51.251Z,186.10
2022-12-07T00:35:51.206Z,177.30
2022-12-07T00:36:51.210Z,163.10
2022-12-07T00:37:51.200Z,108.90
2022-12-07T00:38:51.184Z,173.50
2022-12-07T00:39:51.226Z,168.20
2022-12-07T00:40:51.154Z,127.60
2022-12-07T00:41:51.140Z,129.90
2022-12-07T00:42:51.131Z,151.50
2022-12-07T00:43:51.123Z,201.10
2022-12-07T00:44:51.159Z,119.30
2022-12-07T00:45:51.198Z,133.90
2022-12-07T00:46:51.070Z,149.40
2022-12-07T00:47:51.090Z,147.80
2022-12-07T00:48:51.072Z,173.60
2022-12-07T00:49:51.078Z,182.30
2022-12-07T00:50:51.102Z,150.60
2022-12-07T00:51:51.050Z,124.60
2022-12-07T00:52:51.019Z,121.60
2022-12-07T00:53:51.014Z,182.80
2022-12-07T00:54:50.997Z,176.50
2022-12-07T00:55:51.039Z,142.90
2022-12-07T00:56:50.968Z,145.20
2022-12-07T00:57:50.958Z,123.50
2022-12-07T00:58:51.007Z,143.70
2022-12-07T00:59:50.953Z,128.70
2022-12-07T01:00:50.970Z,204.10
2022-12-07T01:01:51.002Z,179.60
2022-12-07T01:02:50.936Z,175.40
2022-12-07T01:03:50.890Z,165.20
2022-12-07T01:04:50.884Z,182.70
2022-12-07T01:05:50.926Z,125.00
2022-12-07T01:06:50.867Z,181.00
2022-12-07T01:07:50.899Z,179.00
2022-12-07T01:08:50.858Z,145.60
2022-12-07T01:09:50.819Z,113.70
2022-12-07T01:10:50.847Z,140.00
2022-12-07T01:11:50.809Z,154.30
2022-12-07T01:12:50.810Z,193.20
2022-12-07T01:13:50.789Z,127.60
2022-12-07T01:14:50.771Z,111.40
2022-12-07T01:15:50.782Z,144.80
2022-12-07T01:16:50.826Z,181.90
2022-12-07T01:17:50.744Z,178.40
2022-12-07T01:18:50.722Z,130.40
2022-12-07T01:19:50.729Z,111.40
2022-12-07T01:20:50.738Z,110.10
2022-12-07T01:21:50.709Z,149.20
2022-12-07T01:22:50.685Z,141.40
2022-12-07T01:23:50.702Z,168.00
2022-12-07T01:24:50.656Z,209.30
2022-12-07T01:25:50.690Z,262.00
2022-12-07T01:26:50.649Z,315.70
2022-12-07T01:27:50.635Z,272.20
2022-12-07T01:28:50.601Z,194.10
2022-12-07T01:29:50.585Z,218.60
2022-12-07T01:30:50.755Z,352.60
2022-12-07T01:31:50.588Z,340.30
2022-12-07T01:32:50.560Z,389.50
2022-12-07T01:33:50.545Z,268.10
2022-12-07T01:34:50.530Z,256.10
2022-12-07T01:35:50.563Z,184.10
2022-12-07T01:36:50.510Z,228.60
2022-12-07T01:37:50.510Z,310.70
2022-12-07T01:38:50.516Z,401.00
2022-12-07T01:39:50.503Z,183.20
2022-12-07T01:40:50.511Z,221.00
2022-12-07T01:41:50.466Z,381.50
2022-12-07T01:42:50.431Z,246.90
2022-12-07T01:43:50.433Z,325.10
2022-12-07T01:44:50.429Z,246.50
2022-12-07T01:45:50.503Z,568.00
2022-12-07T01:46:50.379Z,516.60
2022-12-07T01:47:50.420Z,248.30
2022-12-07T01:48:50.379Z,579.00
2022-12-07T01:49:50.361Z,183.00
2022-12-07T01:50:50.391Z,465.80
2022-12-07T01:51:50.359Z,446.80
2022-12-07T01:52:50.346Z,243.50
2022-12-07T01:53:50.318Z,259.40
2022-12-07T01:54:50.331Z,255.40
2022-12-07T01:55:50.326Z,596.90
2022-12-07T01:56:50.273Z,502.90
2022-12-07T01:57:50.280Z,468.00
2022-12-07T01:58:50.262Z,246.60
2022-12-07T01:59:50.266Z,502.10
2022-12-07T02:00:50.279Z,477.60
2022-12-07T02:01:50.304Z,465.10
2022-12-07T02:02:50.295Z,407.20
2022-12-07T02:03:50.211Z,390.30
2022-12-07T02:04:50.210Z,313.10
2022-12-07T02:05:50.225Z,313.90
2022-12-07T02:06:50.155Z,315.70
2022-12-07T02:07:50.229Z,306.50
2022-12-07T02:08:50.159Z,311.00
2022-12-07T02:09:50.154Z,319.70
2022-12-07T02:10:50.252Z,315.80
2022-12-07T02:11:50.121Z,386.20
2022-12-07T02:12:50.106Z,375.60
2022-12-07T02:13:50.095Z,353.90
2022-12-07T02:14:50.105Z,323.90
2022-12-07T02:15:50.257Z,363.60
2022-12-07T02:16:50.095Z,274.00
2022-12-07T02:17:50.037Z,347.20
2022-12-07T02:18:50.064Z,331.60
2022-12-07T02:19:50.050Z,307.20
2022-12-07T02:20:50.057Z,324.30
2022-12-07T02:21:50.001Z,308.30
2022-12-07T02:22:49.975Z,208.30
2022-12-07T02:23:49.984Z,238.90
2022-12-07T02:24:49.987Z,107.00
2022-12-07T02:25:50.008Z,188.30
2022-12-07T02:26:49.940Z,292.10
2022-12-07T02:27:49.951Z,786.20
2022-12-07T02:28:49.929Z,341.50
2022-12-07T02:29:49.896Z,705.90
2022-12-07T02:30:49.947Z,929.40
2022-12-07T02:31:49.878Z,871.80
2022-12-07T02:32:49.890Z,989.20
2022-12-07T02:33:49.873Z,999.90
2022-12-07T02:34:49.873Z,947.70
2022-12-07T02:35:49.860Z,999.90
2022-12-07T02:36:49.814Z,275.90
2022-12-07T02:37:49.802Z,999.90
2022-12-07T02:38:49.811Z,999.90
2022-12-07T02:39:49.801Z,999.90
2022-12-07T02:40:49.826Z,999.90
2022-12-07T02:41:49.786Z,999.90
2022-12-07T02:42:49.769Z,999.90
2022-12-07T02:43:49.747Z,999.90
2022-12-07T02:44:49.748Z,999.90
2022-12-07T02:45:49.804Z,999.90
2022-12-07T02:46:49.803Z,999.90
2022-12-07T02:47:49.707Z,999.90
2022-12-07T02:48:49.692Z,999.90
2022-12-07T02:49:49.678Z,999.90
2022-12-07T02:50:49.713Z,999.90
2022-12-07T02:51:49.678Z,822.30
2022-12-07T02:52:49.655Z,999.90
2022-12-07T02:53:49.647Z,999.90
2022-12-07T02:54:49.622Z,999.90
2022-12-07T02:55:49.640Z,999.90
2022-12-07T02:56:49.613Z,999.90
2022-12-07T02:57:49.584Z,999.90
2022-12-07T02:58:49.595Z,999.90
2022-12-07T02:59:49.553Z,999.90
2022-12-07T03:00:49.612Z,999.90
2022-12-07T03:01:49.614Z,999.90
2022-12-07T03:02:49.583Z,999.90
2022-12-07T03:03:49.518Z,999.90
2022-12-07T03:04:49.506Z,999.90
2022-12-07T03:05:49.524Z,999.90
2022-12-07T03:06:49.480Z,999.90
2022-12-07T03:07:49.494Z,851.40
2022-12-07T03:08:49.440Z,999.90
2022-12-07T03:09:49.446Z,138.20
2022-12-07T03:10:49.478Z,640.40
2022-12-07T03:11:49.450Z,421.20
2022-12-07T03:12:49.425Z,743.40
2022-12-07T03:13:49.386Z,740.00
2022-12-07T03:14:49.393Z,744.00
2022-12-07T03:15:49.430Z,749.00
2022-12-07T03:16:49.378Z,798.30
2022-12-07T03:17:49.354Z,522.10
2022-12-07T03:18:49.345Z,999.90
2022-12-07T03:19:49.347Z,999.90
2022-12-07T03:20:49.374Z,999.90
2022-12-07T03:21:49.307Z,999.90
2022-12-07T03:22:49.302Z,999.90
2022-12-07T03:23:49.291Z,999.90
2022-12-07T03:24:49.295Z,999.90
2022-12-07T03:25:49.304Z,999.90
2022-12-07T03:26:49.265Z,999.90
2022-12-07T03:27:49.265Z,999.90
2022-12-07T03:28:49.277Z,999.90
2022-12-07T03:29:49.206Z,999.90
2022-12-07T03:30:49.314Z,999.90
2022-12-07T03:31:49.196Z,999.90
2022-12-07T03:32:49.208Z,999.90
2022-12-07T03:33:49.175Z,999.90
2022-12-07T03:34:49.167Z,999.90
2022-12-07T03:35:49.183Z,999.90
2022-12-07T03:36:49.130Z,999.90
2022-12-07T03:37:49.127Z,999.90
2022-12-07T03:38:49.139Z,567.80
2022-12-07T03:39:49.091Z,757.50
2022-12-07T03:40:49.142Z,567.80
2022-12-07T03:41:49.077Z,896.20
2022-12-07T03:42:49.055Z,852.70
2022-12-07T03:43:49.052Z,867.30
2022-12-07T03:44:49.051Z,799.70
2022-12-07T03:45:49.073Z,721.70
2022-12-07T03:46:49.073Z,648.80
2022-12-07T03:47:49.030Z,463.70
2022-12-07T03:48:49.005Z,427.30
2022-12-07T03:49:48.970Z,515.30
2022-12-07T03:50:49.020Z,488.90
2022-12-07T03:51:48.961Z,464.70
2022-12-07T03:52:48.957Z,427.30
2022-12-07T03:53:48.949Z,509.80
2022-12-07T03:54:48.926Z,483.90
2022-12-07T03:55:48.968Z,418.90
2022-12-07T03:56:48.926Z,402.90
2022-12-07T03:57:48.893Z,391.20
2022-12-07T03:58:48.914Z,379.20
2022-12-07T03:59:48.871Z,380.70
2022-12-07T04:00:48.902Z,373.20
2022-12-07T04:01:48.903Z,360.30
2022-12-07T04:02:48.906Z,352.90
2022-12-07T04:03:48.838Z,348.90
2022-12-07T04:04:48.815Z,315.10
2022-12-07T04:05:48.838Z,519.40
2022-12-07T04:06:48.798Z,426.00
2022-12-07T04:07:48.856Z,402.10
2022-12-07T04:08:48.762Z,401.40
2022-12-07T04:09:48.769Z,394.80
2022-12-07T04:10:48.809Z,402.70
2022-12-07T04:11:48.731Z,217.70
2022-12-07T04:12:48.749Z,208.10
2022-12-07T04:13:48.714Z,424.60
2022-12-07T04:14:48.734Z,801.30
2022-12-07T04:15:48.787Z,831.10
2022-12-07T04:16:48.744Z,821.90
2022-12-07T04:17:48.681Z,749.30
2022-12-07T04:18:48.676Z,195.30
2022-12-07T04:19:48.654Z,185.70
2022-12-07T04:20:48.624Z,227.00
2022-12-07T04:21:48.655Z,425.70
2022-12-07T04:22:48.625Z,826.10
2022-12-07T04:23:48.614Z,884.00
2022-12-07T04:24:48.617Z,895.10
2022-12-07T04:25:48.603Z,886.80
2022-12-07T04:26:48.627Z,784.90
2022-12-07T04:27:48.546Z,888.20
2022-12-07T04:28:48.574Z,902.30
2022-12-07T04:29:48.538Z,899.40
2022-12-07T04:30:48.544Z,441.00
2022-12-07T04:31:48.592Z,269.50
2022-12-07T04:32:48.523Z,319.70
2022-12-07T04:33:48.501Z,808.30
2022-12-07T04:34:52.618Z,921.00
2022-12-07T04:35:49.469Z,870.60
2022-12-07T04:36:48.505Z,882.90
2022-12-07T04:37:48.426Z,891.70
2022-12-07T04:38:48.446Z,893.80
2022-12-07T04:39:48.426Z,891.90
2022-12-07T04:40:48.398Z,900.00
2022-12-07T04:41:48.447Z,890.50
2022-12-07T04:42:48.417Z,931.10
2022-12-07T04:43:48.383Z,894.90
2022-12-07T04:44:48.360Z,895.40
2022-12-07T04:45:48.365Z,902.10
2022-12-07T04:46:48.464Z,893.40
2022-12-07T04:47:48.344Z,813.30
2022-12-07T04:48:48.334Z,835.20
2022-12-07T04:49:48.314Z,857.60
2022-12-07T04:50:48.300Z,762.80
2022-12-07T04:51:48.303Z,808.20
2022-12-07T04:52:48.305Z,793.50
2022-12-07T04:53:48.285Z,768.90
2022-12-07T04:54:48.261Z,754.40
2022-12-07T04:55:48.244Z,808.20
2022-12-07T04:56:48.248Z,757.00
2022-12-07T04:57:48.255Z,828.00
2022-12-07T04:58:48.214Z,839.70
2022-12-07T04:59:48.195Z,759.60
2022-12-07T05:00:48.252Z,745.20
2022-12-07T05:01:48.255Z,793.40
2022-12-07T05:02:48.213Z,758.00
2022-12-07T05:03:48.155Z,761.40
2022-12-07T05:04:48.134Z,781.00
2022-12-07T05:05:48.121Z,783.50
2022-12-07T05:06:48.103Z,739.30
2022-12-07T05:07:48.175Z,595.50
2022-12-07T05:08:48.106Z,319.30
2022-12-07T05:09:48.107Z,325.20
2022-12-07T05:10:48.061Z,315.80
2022-12-07T05:11:48.046Z,513.20
2022-12-07T05:12:48.089Z,495.40
2022-12-07T05:13:48.047Z,481.50
2022-12-07T05:14:48.034Z,462.80
2022-12-07T05:15:48.022Z,474.50
2022-12-07T05:16:48.063Z,471.80
2022-12-07T05:17:48.018Z,492.50
2022-12-07T05:18:47.985Z,505.50
2022-12-07T05:19:47.966Z,512.20
2022-12-07T05:20:47.969Z,493.50
2022-12-07T05:21:47.931Z,471.70
2022-12-07T05:22:47.971Z,192.30
2022-12-07T05:23:47.925Z,345.00
2022-12-07T05:24:47.927Z,327.60
2022-12-07T05:25:47.901Z,309.70
2022-12-07T05:26:47.888Z,144.80
2022-12-07T05:27:47.907Z,215.00
2022-12-07T05:28:47.865Z,216.80
2022-12-07T05:29:47.862Z,327.30
2022-12-07T05:30:47.838Z,668.50
2022-12-07T05:31:47.911Z,628.40
2022-12-07T05:32:47.866Z,433.70
2022-12-07T05:33:47.805Z,321.20
2022-12-07T05:34:47.814Z,336.30
2022-12-07T05:35:47.790Z,552.80
2022-12-07T05:36:47.774Z,394.90
2022-12-07T05:37:47.802Z,386.60
2022-12-07T05:38:47.756Z,351.80
2022-12-07T05:39:47.721Z,390.30
2022-12-07T05:40:47.713Z,390.20
2022-12-07T05:41:47.696Z,387.90
2022-12-07T05:42:47.755Z,392.30
2022-12-07T05:43:47.710Z,394.30
2022-12-07T05:44:47.691Z,396.00
2022-12-07T05:45:47.670Z,383.60
2022-12-07T05:46:47.650Z,380.50
2022-12-07T05:47:47.695Z,381.90
2022-12-07T05:48:47.645Z,190.90
2022-12-07T05:49:47.619Z,328.90
2022-12-07T05:50:47.641Z,334.10
2022-12-07T05:51:47.606Z,228.10
2022-12-07T05:52:47.642Z,200.80
2022-12-07T05:53:47.561Z,262.60
2022-12-07T05:54:47.583Z,191.40
2022-12-07T05:55:47.563Z,381.80
2022-12-07T05:56:47.555Z,416.40
2022-12-07T05:57:47.567Z,397.60
2022-12-07T05:58:47.542Z,414.10
2022-12-07T05:59:47.512Z,417.00
2022-12-07T06:00:51.078Z,414.70
2022-12-07T06:01:47.514Z,417.30
2022-12-07T06:02:47.639Z,417.10
2022-12-07T06:03:47.478Z,415.10
2022-12-07T06:04:47.431Z,405.90
2022-12-07T06:05:47.529Z,399.50
2022-12-07T06:06:47.416Z,395.30
2022-12-07T06:07:47.461Z,387.00
2022-12-07T06:08:47.455Z,391.80
2022-12-07T06:09:47.369Z,367.60
2022-12-07T06:10:47.367Z,369.60
2022-12-07T06:11:47.360Z,396.60
2022-12-07T06:12:47.361Z,398.10
2022-12-07T06:13:47.650Z,374.70
2022-12-07T06:14:47.363Z,375.70
2022-12-07T06:15:47.314Z,371.60
2022-12-07T06:16:47.375Z,391.60
2022-12-07T06:17:47.298Z,154.10
2022-12-07T06:18:47.342Z,305.30
2022-12-07T06:19:47.279Z,296.90
2022-12-07T06:20:47.273Z,249.80
2022-12-07T06:21:47.256Z,214.20
2022-12-07T06:22:47.237Z,160.90
2022-12-07T06:23:47.288Z,103.50
2022-12-07T06:24:47.242Z,166.00
2022-12-07T06:25:47.201Z,167.90
2022-12-07T06:26:47.204Z,217.50
2022-12-07T06:27:47.188Z,150.60
2022-12-07T06:28:47.206Z,141.40
2022-12-07T06:29:47.169Z,147.50
2022-12-07T06:30:47.148Z,279.50
2022-12-07T06:31:47.175Z,360.30
2022-12-07T06:32:47.117Z,347.40
2022-12-07T06:33:47.174Z,331.80
2022-12-07T06:34:47.105Z,268.60
2022-12-07T06:35:47.099Z,292.50
2022-12-07T06:36:47.096Z,297.50
2022-12-07T06:37:47.084Z,307.60
2022-12-07T06:38:47.072Z,289.50
2022-12-07T06:39:47.167Z,270.20
2022-12-07T06:40:47.053Z,286.90
2022-12-07T06:41:47.020Z,235.30
2022-12-07T06:42:47.004Z,175.10
2022-12-07T06:43:51.384Z,300.40
2022-12-07T06:44:48.028Z,184.10
2022-12-07T06:45:47.034Z,177.00
2022-12-07T06:46:46.968Z,229.10
2022-12-07T06:47:47.101Z,252.10
2022-12-07T06:48:46.947Z,209.80
2022-12-07T06:49:46.974Z,220.20
2022-12-07T06:50:51.320Z,290.00
2022-12-07T06:51:47.942Z,229.60
2022-12-07T06:52:46.909Z,417.80
2022-12-07T06:53:46.895Z,355.10
2022-12-07T06:54:46.910Z,377.00
2022-12-07T06:55:46.890Z,342.60
2022-12-07T06:56:46.849Z,308.50
2022-12-07T06:57:46.869Z,310.30
2022-12-07T06:58:46.879Z,310.70
2022-12-07T06:59:46.892Z,305.60
2022-12-07T07:00:46.882Z,303.90
2022-12-07T07:01:46.863Z,297.50
2022-12-07T07:02:46.975Z,297.90
2022-12-07T07:03:46.794Z,305.70
2022-12-07T07:04:46.788Z,297.90
2022-12-07T07:05:46.962Z,256.40
2022-12-07T07:06:46.734Z,263.40
2022-12-07T07:08:20.192Z,259.60
2022-12-07T07:08:47.781Z,253.10
2022-12-07T07:09:46.744Z,181.10
2022-12-07T07:10:46.668Z,251.20
2022-12-07T07:11:46.678Z,191.60
2022-12-07T07:12:46.661Z,200.80
2022-12-07T07:13:46.664Z,261.60
2022-12-07T07:14:46.667Z,251.50
2022-12-07T07:15:46.641Z,210.60
2022-12-07T07:16:46.666Z,251.20
2022-12-07T07:17:46.638Z,290.80
2022-12-07T07:18:46.590Z,215.20
2022-12-07T07:19:46.659Z,179.00
2022-12-07T07:20:46.575Z,274.70
2022-12-07T07:21:46.589Z,334.80
2022-12-07T07:22:46.575Z,246.80
2022-12-07T07:23:46.558Z,197.30
2022-12-07T07:24:46.567Z,278.90
2022-12-07T07:25:46.534Z,258.80
2022-12-07T07:26:46.513Z,213.10
2022-12-07T07:27:46.489Z,275.80
2022-12-07T07:28:46.495Z,274.40
2022-12-07T07:29:46.523Z,217.40
2022-12-07T07:30:46.479Z,300.30
2022-12-07T07:31:46.450Z,371.30
2022-12-07T07:32:46.454Z,229.10
2022-12-07T07:33:46.436Z,214.90
2022-12-07T07:34:46.488Z,348.60
2022-12-07T07:35:46.435Z,403.80
2022-12-07T07:36:46.402Z,297.90
2022-12-07T07:37:46.368Z,200.70
2022-12-07T07:38:46.403Z,300.10
2022-12-07T07:39:46.415Z,374.40
2022-12-07T07:40:46.333Z,223.60
2022-12-07T07:41:46.327Z,200.00
2022-12-07T07:42:46.334Z,328.00
2022-12-07T07:43:46.333Z,312.00
2022-12-07T07:44:46.354Z,207.30
2022-12-07T07:45:46.357Z,270.70
2022-12-07T07:46:46.284Z,364.00
2022-12-07T07:47:46.296Z,390.60
2022-12-07T07:48:46.261Z,191.40
2022-12-07T07:49:48.413Z,201.90
2022-12-07T07:50:46.247Z,377.20
2022-12-07T07:51:46.233Z,289.50
2022-12-07T07:52:46.218Z,200.20
2022-12-07T07:53:46.219Z,322.20
2022-12-07T07:54:46.242Z,286.00
2022-12-07T07:55:46.181Z,211.90
2022-12-07T07:56:46.186Z,312.70
2022-12-07T07:57:51.143Z,546.60
2022-12-07T07:58:47.144Z,290.10
2022-12-07T07:59:46.123Z,221.50
2022-12-07T08:00:46.163Z,212.30
2022-12-07T08:01:46.211Z,317.30
2022-12-07T08:02:46.115Z,372.00
2022-12-07T08:03:46.109Z,254.50
2022-12-07T08:04:46.137Z,200.30
2022-12-07T08:05:46.137Z,287.50
2022-12-07T08:06:46.065Z,362.50
2022-12-07T08:07:46.071Z,340.40
2022-12-07T08:08:46.067Z,224.70
2022-12-07T08:09:46.035Z,201.90
2022-12-07T08:10:46.028Z,358.60
2022-12-07T08:11:45.993Z,486.00
2022-12-07T08:12:45.963Z,299.70
2022-12-07T08:13:45.976Z,331.30
2022-12-07T08:14:45.965Z,492.90
2022-12-07T08:15:46.069Z,349.70
2022-12-07T08:16:45.940Z,210.70
2022-12-07T08:17:45.912Z,378.40
2022-12-07T08:18:45.929Z,506.80
2022-12-07T08:19:45.917Z,305.70
2022-12-07T08:20:45.926Z,178.40
2022-12-07T08:21:45.895Z,344.30
2022-12-07T08:22:45.893Z,756.20
2022-12-07T08:23:45.887Z,808.90
2022-12-07T08:24:45.858Z,521.80
2022-12-07T08:25:45.862Z,222.50
2022-12-07T08:26:45.816Z,706.00
2022-12-07T08:27:45.835Z,855.90
2022-12-07T08:28:45.810Z,695.40
2022-12-07T08:29:45.797Z,925.90
2022-12-07T08:30:45.870Z,195.90
2022-12-07T08:31:45.797Z,738.10
2022-12-07T08:32:45.769Z,999.90
2022-12-07T08:33:45.746Z,797.20
2022-12-07T08:34:45.712Z,731.60
2022-12-07T08:35:45.785Z,395.70
2022-12-07T08:36:45.737Z,346.00
2022-12-07T08:37:45.706Z,396.20
2022-12-07T08:39:08.057Z,544.60
2022-12-07T08:39:46.697Z,680.60
2022-12-07T08:40:45.680Z,450.90
2022-12-07T08:41:45.657Z,269.30
2022-12-07T08:42:45.717Z,970.50
2022-12-07T08:43:45.642Z,716.50
2022-12-07T08:44:45.626Z,767.50
2022-12-07T08:45:45.670Z,484.20
2022-12-07T08:46:45.700Z,297.60
2022-12-07T08:47:45.591Z,190.80
2022-12-07T08:48:45.578Z,791.90
2022-12-07T08:49:45.573Z,999.90
2022-12-07T08:50:49.560Z,999.90
2022-12-07T08:51:45.552Z,999.90
2022-12-07T08:52:45.516Z,999.90
2022-12-07T08:53:45.529Z,999.90
2022-12-07T08:54:45.500Z,999.90
2022-12-07T08:55:45.548Z,999.90
2022-12-07T08:56:45.489Z,999.90
2022-12-07T08:57:45.487Z,999.90
2022-12-07T08:58:45.457Z,999.90
2022-12-07T08:59:45.448Z,999.90
2022-12-07T09:00:45.495Z,999.90
2022-12-07T09:01:45.454Z,999.90
2022-12-07T09:02:45.439Z,999.90
2022-12-07T09:03:45.408Z,999.90
2022-12-07T09:04:45.382Z,999.90
2022-12-07T09:05:45.508Z,999.90
2022-12-07T09:06:45.508Z,999.90
2022-12-07T09:07:45.420Z,999.90
2022-12-07T09:08:45.331Z,999.90
2022-12-07T09:09:45.344Z,999.90
2022-12-07T09:10:45.351Z,999.90
2022-12-07T09:11:45.308Z,999.90
2022-12-07T09:12:45.270Z,999.90
2022-12-07T09:13:45.303Z,999.90
2022-12-07T09:14:45.302Z,999.90
2022-12-07T09:15:45.353Z,999.90
2022-12-07T09:16:45.283Z,999.90
2022-12-07T09:17:45.240Z,999.90
2022-12-07T09:18:45.252Z,999.90
2022-12-07T09:19:45.226Z,999.90
2022-12-07T09:20:45.254Z,999.90
2022-12-07T09:21:45.208Z,999.90
2022-12-07T09:22:45.180Z,999.90
2022-12-07T09:23:45.189Z,999.90
2022-12-07T09:24:45.154Z,999.90
2022-12-07T09:25:45.186Z,999.90
2022-12-07T09:26:45.148Z,999.90
2022-12-07T09:27:45.166Z,999.90
2022-12-07T09:28:45.154Z,999.90
2022-12-07T09:29:45.133Z,999.90
2022-12-07T09:31:21.046Z,999.90
2022-12-07T09:31:46.199Z,999.90
2022-12-07T09:32:45.079Z,999.90
2022-12-07T09:33:45.067Z,999.90
2022-12-07T09:34:45.137Z,999.90
2022-12-07T09:35:45.098Z,999.90
2022-12-07T09:36:45.009Z,999.90
2022-12-07T09:37:45.040Z,999.90
2022-12-07T09:38:45.014Z,999.90
2022-12-07T09:39:50.041Z,999.90
2022-12-07T09:40:46.030Z,999.90
2022-12-07T09:41:44.964Z,999.90
2022-12-07T09:42:44.998Z,999.90
2022-12-07T09:43:44.964Z,999.90
2022-12-07T09:44:44.959Z,999.90
2022-12-07T09:45:48.553Z,999.90
2022-12-07T09:46:45.022Z,999.90
2022-12-07T09:47:44.905Z,999.90
2022-12-07T09:48:44.906Z,999.90
2022-12-07T09:49:44.872Z,999.90
2022-12-07T09:50:44.905Z,999.90
2022-12-07T09:51:44.859Z,999.90
2022-12-07T09:52:44.818Z,999.90
2022-12-07T09:53:44.848Z,320.10
2022-12-07T09:54:44.803Z,999.90
2022-12-07T09:55:44.873Z,61.80
2022-12-07T09:56:44.795Z,999.90
2022-12-07T09:57:44.777Z,999.90
2022-12-07T09:58:44.785Z,999.90
2022-12-07T09:59:44.764Z,999.90
2022-12-07T10:00:44.801Z,999.90
2022-12-07T10:01:44.820Z,999.90
2022-12-07T10:02:44.737Z,999.90
2022-12-07T10:03:44.738Z,999.90
2022-12-07T10:04:44.755Z,999.90
2022-12-07T10:05:44.724Z,999.90
2022-12-07T10:06:44.688Z,999.90
2022-12-07T10:07:44.718Z,999.90
2022-12-07T10:08:44.668Z,999.90
2022-12-07T10:09:44.644Z,999.90
2022-12-07T10:10:44.702Z,999.90
2022-12-07T10:11:44.616Z,999.90
2022-12-07T10:12:44.618Z,999.90
2022-12-07T10:13:44.600Z,999.90
2022-12-07T10:15:06.350Z,999.90
2022-12-07T10:15:45.730Z,999.90
2022-12-07T10:16:44.612Z,999.90
2022-12-07T10:17:44.674Z,999.90
2022-12-07T10:18:44.542Z,999.90
2022-12-07T10:19:44.565Z,999.90
2022-12-07T10:20:44.573Z,999.90
2022-12-07T10:21:44.529Z,999.90
2022-12-07T10:22:44.511Z,999.90
2022-12-07T10:23:44.493Z,999.90
2022-12-07T10:24:44.458Z,999.90
2022-12-07T10:25:44.522Z,999.90
2022-12-07T10:26:44.469Z,999.90
2022-12-07T10:27:44.428Z,999.90
2022-12-07T10:28:44.438Z,999.90
2022-12-07T10:29:44.426Z,999.90
2022-12-07T10:30:44.448Z,999.90
2022-12-07T10:31:44.430Z,999.90
2022-12-07T10:32:44.373Z,999.90
2022-12-07T10:33:44.388Z,999.90
2022-12-07T10:34:48.784Z,999.90
2022-12-07T10:35:45.418Z,999.90
2022-12-07T10:36:44.332Z,999.90
2022-12-07T10:37:44.315Z,999.90
2022-12-07T10:38:44.316Z,999.90
2022-12-07T10:39:44.278Z,999.90
2022-12-07T10:40:46.598Z,999.90
2022-12-07T10:41:44.274Z,999.90
2022-12-07T10:42:44.263Z,999.90
2022-12-07T10:43:44.265Z,999.90
2022-12-07T10:44:44.353Z,999.90
2022-12-07T10:46:02.548Z,999.90
2022-12-07T10:46:45.253Z,999.90
2022-12-07T10:47:44.226Z,999.90
2022-12-07T10:48:44.188Z,999.90
2022-12-07T10:49:44.202Z,999.90
2022-12-07T10:50:44.237Z,999.90
2022-12-07T10:51:44.147Z,999.90
2022-12-07T10:52:44.179Z,999.90
2022-12-07T10:53:44.165Z,999.90
2022-12-07T10:54:44.113Z,999.90
2022-12-07T10:55:44.143Z,999.90
2022-12-07T10:56:48.198Z,999.90
2022-12-07T10:57:45.102Z,999.90
2022-12-07T10:58:44.091Z,999.90
2022-12-07T10:59:44.103Z,999.90
2022-12-07T11:00:44.188Z,999.90
2022-12-07T11:01:44.088Z,999.90
2022-12-07T11:02:44.074Z,999.90
2022-12-07T11:03:44.040Z,999.90
2022-12-07T11:04:44.006Z,999.90
2022-12-07T11:05:44.045Z,999.90
2022-12-07T11:06:44.018Z,999.90
2022-12-07T11:07:44.075Z,999.90
2022-12-07T11:08:43.969Z,999.90
2022-12-07T11:10:11.141Z,999.90
2022-12-07T11:10:44.987Z,999.90
2022-12-07T11:11:43.921Z,999.90
2022-12-07T11:12:43.924Z,999.90
2022-12-07T11:13:43.909Z,999.90
2022-12-07T11:14:43.913Z,999.90
2022-12-07T11:15:43.910Z,999.90
2022-12-07T11:16:43.954Z,999.90
2022-12-07T11:17:43.845Z,999.90
2022-12-07T11:18:43.865Z,999.90
2022-12-07T11:19:43.831Z,999.90
2022-12-07T11:20:43.884Z,999.90
2022-12-07T11:21:43.829Z,999.90
2022-12-07T11:22:43.822Z,999.90
2022-12-07T11:23:43.805Z,999.90
2022-12-07T11:24:43.802Z,999.90
2022-12-07T11:25:43.833Z,999.90
2022-12-07T11:26:43.754Z,999.90
2022-12-07T11:27:43.753Z,999.90
2022-12-07T11:28:43.752Z,999.90
2022-12-07T11:29:43.737Z,999.90
2022-12-07T11:30:43.779Z,999.90
2022-12-07T11:31:43.758Z,999.90
2022-12-07T11:32:43.717Z,999.90
2022-12-07T11:33:43.698Z,999.90
2022-12-07T11:34:43.687Z,254.70
2022-12-07T11:35:43.705Z,999.90
2022-12-07T11:36:43.686Z,231.40
2022-12-07T11:37:43.617Z,999.90
2022-12-07T11:38:43.634Z,999.90
2022-12-07T11:39:43.617Z,999.90
2022-12-07T11:40:43.638Z,832.80
2022-12-07T11:41:43.588Z,999.90
2022-12-07T11:42:43.587Z,999.90
2022-12-07T11:43:43.585Z,999.90
2022-12-07T11:44:43.572Z,457.50
2022-12-07T11:45:43.570Z,357.90
2022-12-07T11:46:43.593Z,999.90
2022-12-07T11:47:43.618Z,987.30
2022-12-07T11:48:43.533Z,523.70
2022-12-07T11:49:43.508Z,804.60
2022-12-07T11:50:43.532Z,258.50
2022-12-07T11:51:43.461Z,999.90
2022-12-07T11:52:43.484Z,999.90
2022-12-07T11:53:43.476Z,924.70
2022-12-07T11:54:43.453Z,664.50
2022-12-07T11:55:43.474Z,778.50
2022-12-07T11:56:43.412Z,454.00
2022-12-07T11:57:43.409Z,999.90
2022-12-07T11:58:43.405Z,358.00
2022-12-07T11:59:43.405Z,374.70
2022-12-07T12:00:43.404Z,999.90
2022-12-07T12:01:43.414Z,999.90
2022-12-07T12:02:43.428Z,830.70
2022-12-07T12:03:46.951Z,319.30
2022-12-07T12:04:44.364Z,185.80
2022-12-07T12:05:43.381Z,306.90
2022-12-07T12:06:43.331Z,260.60
2022-12-07T12:09:46.715Z,74.80
2022-12-07T12:10:44.319Z,156.50
2022-12-07T12:11:43.358Z,999.90
2022-12-07T12:14:46.762Z,425.50
2022-12-07T12:15:43.181Z,132.00
2022-12-07T12:16:43.333Z,256.40
2022-12-07T12:17:43.186Z,61.20
2022-12-07T12:18:43.184Z,190.00
2022-12-07T12:19:43.165Z,999.90
2022-12-07T12:20:43.152Z,50.90
2022-12-07T12:21:43.208Z,350.30
2022-12-07T12:22:43.142Z,64.50
2022-12-07T12:23:43.127Z,84.10
2022-12-07T12:24:43.114Z,110.50
2022-12-07T12:25:43.110Z,401.80
2022-12-07T12:26:43.156Z,75.00
2022-12-07T12:27:43.077Z,153.10
2022-12-07T12:28:49.878Z,151.10
2022-12-07T12:29:44.031Z,62.40
2022-12-07T12:30:43.037Z,271.00
2022-12-07T12:31:43.164Z,54.90
2022-12-07T12:32:43.046Z,152.80